createdAt,value
2023-10-06T00:00:12.110Z,9.10
2023-10-06T00:02:45.831Z,9.10
2023-10-06T00:05:15.677Z,9.10
2023-10-06T00:07:43.911Z,9.00
2023-10-06T00:10:21.341Z,9.40
2023-10-06T00:12:55.812Z,9.60
2023-10-06T00:15:40.292Z,9.80
2023-10-06T00:18:12.922Z,9.50
2023-10-06T00:20:43.478Z,9.30
2023-10-06T00:23:16.330Z,9.10
2023-10-06T00:25:47.843Z,9.00
2023-10-06T00:28:20.697Z,8.90
2023-10-06T00:30:57.276Z,9.00
2023-10-06T00:33:29.309Z,8.90
2023-10-06T00:35:58.275Z,8.90
2023-10-06T00:38:28.438Z,8.90
2023-10-06T00:40:58.354Z,8.70
2023-10-06T00:43:36.057Z,8.80
2023-10-06T00:46:08.241Z,8.70
2023-10-06T00:48:40.930Z,8.70
2023-10-06T00:51:13.728Z,8.70
2023-10-06T00:53:43.459Z,8.70
2023-10-06T00:56:16.553Z,8.70
2023-10-06T00:58:45.592Z,8.70
2023-10-06T01:01:18.291Z,8.90
2023-10-06T01:03:50.025Z,9.20
2023-10-06T01:06:24.202Z,9.10
2023-10-06T01:09:07.829Z,8.90
2023-10-06T01:11:46.091Z,8.80
2023-10-06T01:14:16.016Z,8.70
2023-10-06T01:16:44.377Z,8.60
2023-10-06T01:19:27.307Z,8.50
2023-10-06T01:21:57.102Z,8.50
2023-10-06T01:24:27.413Z,8.50
2023-10-06T01:27:00.166Z,8.60
2023-10-06T01:29:31.566Z,8.80
2023-10-06T01:32:04.848Z,8.60
2023-10-06T01:34:36.116Z,8.40
2023-10-06T01:37:04.757Z,8.40
2023-10-06T01:39:36.749Z,8.50
2023-10-06T01:42:08.530Z,8.40
2023-10-06T01:44:37.198Z,8.50
2023-10-06T01:47:06.338Z,8.40
2023-10-06T01:49:36.124Z,8.40
2023-10-06T01:52:09.390Z,8.40
2023-10-06T01:54:39.551Z,8.40
2023-10-06T01:57:08.690Z,9.00
2023-10-06T01:59:37.072Z,8.90
2023-10-06T02:02:09.852Z,8.60
2023-10-06T02:04:48.922Z,8.40
2023-10-06T02:07:19.749Z,8.40
2023-10-06T02:09:50.618Z,8.50
2023-10-06T02:12:18.734Z,8.40
2023-10-06T02:14:49.060Z,8.30
2023-10-06T02:17:17.175Z,8.40
2023-10-06T02:19:45.297Z,8.50
2023-10-06T02:22:13.393Z,8.50
2023-10-06T02:24:43.669Z,8.60
2023-10-06T02:27:13.092Z,8.50
2023-10-06T02:29:44.728Z,8.40
2023-10-06T02:32:14.326Z,8.30
2023-10-06T02:34:42.557Z,8.40
2023-10-06T02:37:10.664Z,8.40
2023-10-06T02:39:44.374Z,8.40
2023-10-06T02:42:15.409Z,8.40
2023-10-06T02:44:43.776Z,8.40
2023-10-06T02:47:12.849Z,8.50
2023-10-06T02:49:49.520Z,8.40
2023-10-06T02:52:21.962Z,8.40
2023-10-06T02:54:59.751Z,8.40
2023-10-06T02:57:29.424Z,8.50
2023-10-06T03:00:18.522Z,8.60
2023-10-06T03:02:46.928Z,8.50
2023-10-06T03:05:15.983Z,8.30
2023-10-06T03:07:46.905Z,8.30
2023-10-06T03:10:19.254Z,8.30
2023-10-06T03:12:50.396Z,8.20
2023-10-06T03:15:29.638Z,8.00
2023-10-06T03:17:59.729Z,8.00
2023-10-06T03:20:31.090Z,8.10
2023-10-06T03:22:59.222Z,8.10
2023-10-06T03:25:29.467Z,8.00
2023-10-06T03:27:59.235Z,8.00
2023-10-06T03:30:29.808Z,8.00
2023-10-06T03:32:59.919Z,7.90
2023-10-06T03:35:38.255Z,7.90
2023-10-06T03:38:28.686Z,7.90
2023-10-06T03:41:11.697Z,7.90
2023-10-06T03:43:49.159Z,7.80
2023-10-06T03:46:20.127Z,7.80
2023-10-06T03:48:50.754Z,7.80
2023-10-06T03:51:19.337Z,7.80
2023-10-06T03:53:49.846Z,7.80
2023-10-06T03:56:18.979Z,7.70
2023-10-06T03:58:48.503Z,7.90
2023-10-06T04:01:21.259Z,8.00
2023-10-06T04:03:49.648Z,7.80
2023-10-06T04:06:17.926Z,7.90
2023-10-06T04:08:47.629Z,7.90
2023-10-06T04:11:16.720Z,8.00
2023-10-06T04:13:45.263Z,7.90
2023-10-06T04:16:15.828Z,7.80
2023-10-06T04:18:48.977Z,7.90
2023-10-06T04:21:17.889Z,7.90
2023-10-06T04:23:46.091Z,7.80
2023-10-06T04:26:16.808Z,7.70
2023-10-06T04:28:49.469Z,7.70
2023-10-06T04:31:19.608Z,7.80
2023-10-06T04:33:48.294Z,7.70
2023-10-06T04:36:21.805Z,7.70
2023-10-06T04:38:51.113Z,7.60
2023-10-06T04:41:21.811Z,7.60
2023-10-06T04:43:53.354Z,7.60
2023-10-06T04:46:23.234Z,7.50
2023-10-06T04:48:51.617Z,7.50
2023-10-06T04:51:19.948Z,7.60
2023-10-06T04:53:48.487Z,7.50
2023-10-06T04:56:17.799Z,7.60
2023-10-06T04:58:46.151Z,7.70
2023-10-06T05:01:14.941Z,7.80
2023-10-06T05:03:45.632Z,7.80
2023-10-06T05:06:17.605Z,7.80
2023-10-06T05:08:48.277Z,7.80
2023-10-06T05:11:18.299Z,7.70
2023-10-06T05:13:49.156Z,7.70
2023-10-06T05:16:20.128Z,7.70
2023-10-06T05:18:49.807Z,7.70
2023-10-06T05:21:18.582Z,7.80
2023-10-06T05:23:46.974Z,7.70
2023-10-06T05:26:16.759Z,7.70
2023-10-06T05:28:45.823Z,7.70
2023-10-06T05:31:14.567Z,7.70
2023-10-06T05:33:42.822Z,7.60
2023-10-06T05:36:13.343Z,7.70
2023-10-06T05:38:41.805Z,7.70
2023-10-06T05:41:13.416Z,7.90
2023-10-06T05:43:42.618Z,7.90
2023-10-06T05:46:11.480Z,8.00
2023-10-06T05:48:41.182Z,8.10
2023-10-06T05:51:12.241Z,8.20
2023-10-06T05:53:44.851Z,8.20
2023-10-06T05:56:13.869Z,8.30
2023-10-06T05:58:44.509Z,8.40
2023-10-06T06:01:14.451Z,8.30
2023-10-06T06:03:48.088Z,8.40
2023-10-06T06:06:17.516Z,8.50
2023-10-06T06:08:49.295Z,8.70
2023-10-06T06:11:18.728Z,8.90
2023-10-06T06:13:55.294Z,8.90
2023-10-06T06:16:27.534Z,8.90
2023-10-06T06:18:55.776Z,8.90
2023-10-06T06:21:26.631Z,8.90
2023-10-06T06:24:00.764Z,8.90
2023-10-06T06:26:30.913Z,9.00
2023-10-06T06:29:03.949Z,9.10
2023-10-06T06:31:35.237Z,9.10
2023-10-06T06:34:06.536Z,9.20
2023-10-06T06:36:34.948Z,9.20
2023-10-06T06:39:05.045Z,9.20
2023-10-06T06:41:34.519Z,9.30
2023-10-06T06:44:03.598Z,9.40
2023-10-06T06:46:32.286Z,9.50
2023-10-06T06:49:02.188Z,9.50
2023-10-06T06:51:32.442Z,9.50
2023-10-06T06:54:01.358Z,9.60
2023-10-06T06:56:31.422Z,9.60
2023-10-06T06:59:02.046Z,9.60
2023-10-06T07:01:30.820Z,9.70
2023-10-06T07:04:02.760Z,9.80
2023-10-06T07:06:32.546Z,9.90
2023-10-06T07:09:02.014Z,10.10
2023-10-06T07:11:31.848Z,10.10
2023-10-06T07:14:01.422Z,10.20
2023-10-06T07:16:29.683Z,10.20
2023-10-06T07:18:58.097Z,10.20
2023-10-06T07:21:26.672Z,10.40
2023-10-06T07:23:58.802Z,10.40
2023-10-06T07:26:27.299Z,10.50
2023-10-06T07:28:57.983Z,10.70
2023-10-06T07:31:28.288Z,11.00
2023-10-06T07:33:59.394Z,11.10
2023-10-06T07:36:29.355Z,11.20
2023-10-06T07:38:58.746Z,11.40
2023-10-06T07:41:28.234Z,11.60
2023-10-06T07:43:58.440Z,12.00
2023-10-06T07:46:30.974Z,12.30
2023-10-06T07:48:59.923Z,12.40
2023-10-06T07:51:29.774Z,12.30
2023-10-06T07:54:00.593Z,12.30
2023-10-06T07:56:29.573Z,12.20
2023-10-06T07:59:00.073Z,12.20
2023-10-06T08:01:29.573Z,12.10
2023-10-06T08:03:58.364Z,12.10
2023-10-06T08:06:27.235Z,12.10
2023-10-06T08:08:57.894Z,12.10
2023-10-06T08:11:27.023Z,12.20
2023-10-06T08:13:56.546Z,12.30
2023-10-06T08:16:27.698Z,12.30
2023-10-06T08:18:56.360Z,12.40
2023-10-06T08:21:25.278Z,12.50
2023-10-06T08:23:53.833Z,12.60
2023-10-06T08:26:23.045Z,12.70
2023-10-06T08:29:00.903Z,12.80
2023-10-06T08:31:31.052Z,13.00
2023-10-06T08:34:03.648Z,13.00
2023-10-06T08:36:33.334Z,13.20
2023-10-06T08:39:04.456Z,13.30
2023-10-06T08:41:38.904Z,13.40
2023-10-06T08:44:08.844Z,13.60
2023-10-06T08:46:43.116Z,13.50
2023-10-06T08:49:12.200Z,13.70
2023-10-06T08:51:42.852Z,13.90
2023-10-06T08:54:14.829Z,14.10
2023-10-06T08:56:44.700Z,14.30
2023-10-06T08:59:16.715Z,14.50
2023-10-06T09:01:46.982Z,14.60
2023-10-06T09:04:16.141Z,15.00
2023-10-06T09:07:14.110Z,15.60
2023-10-06T09:09:44.392Z,16.20
2023-10-06T09:12:25.056Z,17.00
2023-10-06T09:14:57.228Z,18.10
2023-10-06T09:17:34.802Z,19.20
2023-10-06T09:20:13.408Z,20.40
2023-10-06T09:22:50.300Z,21.40
2023-10-06T09:25:22.769Z,22.40
2023-10-06T09:28:03.121Z,22.90
2023-10-06T09:30:58.724Z,22.40
2023-10-06T09:33:30.848Z,20.50
2023-10-06T09:36:08.942Z,18.60
2023-10-06T09:38:38.178Z,17.70
2023-10-06T09:41:09.005Z,16.90
2023-10-06T09:43:40.447Z,16.80
2023-10-06T09:46:14.734Z,16.80
2023-10-06T09:48:47.375Z,16.80
2023-10-06T09:51:20.043Z,16.80
2023-10-06T09:53:49.337Z,16.70
2023-10-06T09:56:18.929Z,16.80
2023-10-06T09:58:50.393Z,16.90
2023-10-06T10:01:22.413Z,17.00
2023-10-06T10:03:55.823Z,17.10
2023-10-06T10:06:25.051Z,17.20
2023-10-06T10:08:53.725Z,17.40
2023-10-06T10:11:33.878Z,17.70
2023-10-06T10:14:27.494Z,18.80
2023-10-06T10:17:15.356Z,20.50
2023-10-06T10:19:47.944Z,22.00
2023-10-06T10:22:17.588Z,22.60
2023-10-06T10:27:30.487Z,21.70
2023-10-06T10:29:59.267Z,20.10
2023-10-06T10:32:32.048Z,19.40
2023-10-06T10:35:16.999Z,19.00
2023-10-06T10:38:05.649Z,18.90
2023-10-06T10:40:48.639Z,19.00
2023-10-06T10:43:18.565Z,19.30
2023-10-06T10:45:49.341Z,19.50
2023-10-06T10:48:18.939Z,19.50
2023-10-06T10:51:11.941Z,19.60
2023-10-06T10:53:43.429Z,20.00
2023-10-06T10:56:26.604Z,20.90
2023-10-06T10:58:59.339Z,21.60
2023-10-06T11:01:33.043Z,22.10
2023-10-06T11:04:19.850Z,21.50
2023-10-06T11:06:51.444Z,21.80
2023-10-06T11:09:31.601Z,22.00
2023-10-06T11:12:20.996Z,21.70
2023-10-06T11:14:54.185Z,21.40
2023-10-06T11:17:24.318Z,21.30
2023-10-06T11:20:10.058Z,21.30
2023-10-06T11:22:40.145Z,21.30
2023-10-06T11:25:11.843Z,21.30
2023-10-06T11:27:40.892Z,21.60
2023-10-06T11:30:16.393Z,22.00
2023-10-06T11:32:45.564Z,22.00
2023-10-06T11:35:14.888Z,22.00
2023-10-06T11:37:45.144Z,21.80
2023-10-06T11:40:14.863Z,22.10
2023-10-06T11:42:47.569Z,22.60
2023-10-06T11:45:25.903Z,23.20
2023-10-06T11:47:55.566Z,23.80
2023-10-06T11:50:26.671Z,24.10
2023-10-06T11:52:57.398Z,23.40
2023-10-06T11:55:32.663Z,22.90
2023-10-06T11:58:06.138Z,22.90
2023-10-06T12:00:44.420Z,23.10
2023-10-06T12:03:13.630Z,23.50
2023-10-06T12:05:56.689Z,23.60
2023-10-06T12:08:27.136Z,23.80
2023-10-06T12:10:59.715Z,24.40
2023-10-06T12:13:28.254Z,24.10
2023-10-06T12:15:56.804Z,23.60
2023-10-06T12:18:25.318Z,23.50
2023-10-06T12:20:54.083Z,23.00
2023-10-06T12:23:22.442Z,23.30
2023-10-06T12:25:52.585Z,23.50
2023-10-06T12:28:21.366Z,23.70
2023-10-06T12:30:49.870Z,23.80
2023-10-06T12:33:18.256Z,23.30
2023-10-06T12:35:47.198Z,23.50
2023-10-06T12:38:16.449Z,24.10
2023-10-06T12:40:48.175Z,24.50
2023-10-06T12:43:20.365Z,24.50
2023-10-06T12:45:48.487Z,24.70
2023-10-06T12:48:16.932Z,24.80
2023-10-06T12:50:45.188Z,24.50
2023-10-06T12:53:14.043Z,24.00
2023-10-06T12:55:44.345Z,23.30
2023-10-06T12:58:16.188Z,23.30
2023-10-06T13:00:45.835Z,23.30
2023-10-06T13:03:18.196Z,23.40
2023-10-06T13:05:48.341Z,23.10
2023-10-06T13:08:18.608Z,22.90
2023-10-06T13:10:48.312Z,22.60
2023-10-06T13:13:17.772Z,23.30
2023-10-06T13:15:47.805Z,24.20
2023-10-06T13:18:18.434Z,24.50
2023-10-06T13:20:48.350Z,24.40
2023-10-06T13:23:16.775Z,23.80
2023-10-06T13:25:48.138Z,23.20
2023-10-06T13:28:19.539Z,22.70
2023-10-06T13:30:49.184Z,22.30
2023-10-06T13:33:17.448Z,22.10
2023-10-06T13:35:46.166Z,21.90
2023-10-06T13:38:14.701Z,21.90
2023-10-06T13:40:46.214Z,21.90
2023-10-06T13:43:14.708Z,21.80
2023-10-06T13:45:46.381Z,21.80
2023-10-06T13:48:17.621Z,21.90
2023-10-06T13:50:47.214Z,22.00
2023-10-06T13:53:16.402Z,21.80
2023-10-06T13:55:45.924Z,21.70
2023-10-06T13:58:14.634Z,21.40
2023-10-06T14:00:43.603Z,21.40
2023-10-06T14:03:15.171Z,21.30
2023-10-06T14:05:52.290Z,21.40
2023-10-06T14:08:21.646Z,21.50
2023-10-06T14:10:50.806Z,21.50
2023-10-06T14:13:24.655Z,21.40
2023-10-06T14:15:56.448Z,21.40
2023-10-06T14:18:27.102Z,21.20
2023-10-06T14:20:58.793Z,21.40
2023-10-06T14:23:31.413Z,21.30
2023-10-06T14:26:02.012Z,21.20
2023-10-06T14:28:30.596Z,21.10
2023-10-06T14:31:08.797Z,20.90
2023-10-06T14:33:41.017Z,20.80
2023-10-06T14:36:22.228Z,20.80
2023-10-06T14:39:07.967Z,20.80
2023-10-06T14:41:53.451Z,20.70
2023-10-06T14:44:38.935Z,20.80
2023-10-06T14:47:11.419Z,20.90
2023-10-06T14:49:43.921Z,20.90
2023-10-06T14:52:14.749Z,21.00
2023-10-06T14:54:44.962Z,20.90
2023-10-06T14:57:14.060Z,20.80
2023-10-06T14:59:45.284Z,20.80
2023-10-06T15:02:13.568Z,20.80
2023-10-06T15:04:41.999Z,20.70
2023-10-06T15:07:12.360Z,20.60
2023-10-06T15:09:42.052Z,20.70
2023-10-06T15:12:10.865Z,20.60
2023-10-06T15:14:41.624Z,20.40
2023-10-06T15:17:12.467Z,20.30
2023-10-06T15:19:40.916Z,20.30
2023-10-06T15:22:10.340Z,20.30
2023-10-06T15:24:41.368Z,20.20
2023-10-06T15:27:11.183Z,20.00
2023-10-06T15:29:41.647Z,19.90
2023-10-06T15:32:12.989Z,19.90
2023-10-06T15:34:41.674Z,19.80
2023-10-06T15:37:12.242Z,19.70
2023-10-06T15:39:40.343Z,19.70
2023-10-06T15:42:11.093Z,19.60
2023-10-06T15:44:39.486Z,19.60
2023-10-06T15:47:08.954Z,19.50
2023-10-06T15:49:38.817Z,19.50
2023-10-06T15:52:14.783Z,19.40
2023-10-06T15:54:42.973Z,19.30
2023-10-06T15:57:12.495Z,19.20
2023-10-06T15:59:40.570Z,19.10
2023-10-06T16:02:11.081Z,19.10
2023-10-06T16:04:42.053Z,19.00
2023-10-06T16:07:11.756Z,18.90
2023-10-06T16:09:39.959Z,18.80
2023-10-06T16:12:12.760Z,18.80
2023-10-06T16:14:42.306Z,18.60
2023-10-06T16:17:11.215Z,18.50
2023-10-06T16:19:40.405Z,18.50
2023-10-06T16:22:10.692Z,18.40
2023-10-06T16:24:39.353Z,18.40
2023-10-06T16:27:07.900Z,18.30
2023-10-06T16:29:39.020Z,18.10
2023-10-06T16:32:10.144Z,18.00
2023-10-06T16:34:39.544Z,17.90
2023-10-06T16:37:09.748Z,17.80
2023-10-06T16:39:38.238Z,17.60
2023-10-06T16:42:06.888Z,17.70
2023-10-06T16:44:35.202Z,17.60
2023-10-06T16:47:08.262Z,17.50
2023-10-06T16:49:36.356Z,17.40
2023-10-06T16:52:05.098Z,17.30
2023-10-06T16:54:35.104Z,17.30
2023-10-06T16:57:04.053Z,17.20
2023-10-06T16:59:32.544Z,17.10
2023-10-06T17:02:00.794Z,17.20
2023-10-06T17:04:30.326Z,17.10
2023-10-06T17:06:58.530Z,17.10
2023-10-06T17:09:32.321Z,17.10
2023-10-06T17:12:08.036Z,17.10
2023-10-06T17:14:37.165Z,17.00
2023-10-06T17:17:08.891Z,16.90
2023-10-06T17:19:40.179Z,16.80
2023-10-06T17:22:09.947Z,16.70
2023-10-06T17:24:38.801Z,16.60
2023-10-06T17:27:06.966Z,16.50
2023-10-06T17:29:35.248Z,16.60
2023-10-06T17:32:03.486Z,16.40
2023-10-06T17:34:32.037Z,16.30
2023-10-06T17:39:53.053Z,16.20
2023-10-06T17:42:21.203Z,16.00
2023-10-06T17:44:50.201Z,15.90
2023-10-06T17:47:19.198Z,15.80
2023-10-06T17:49:51.186Z,15.80
2023-10-06T17:52:22.243Z,15.60
2023-10-06T17:54:50.375Z,15.50
2023-10-06T17:57:19.021Z,15.50
2023-10-06T17:59:47.532Z,15.50
2023-10-06T18:02:15.725Z,15.40
2023-10-06T18:04:49.839Z,15.30
2023-10-06T18:07:19.834Z,15.30
2023-10-06T18:09:51.829Z,15.30
2023-10-06T18:12:25.400Z,15.20
2023-10-06T18:14:53.976Z,15.20
2023-10-06T18:17:22.312Z,15.40
2023-10-06T18:19:50.590Z,15.40
2023-10-06T18:22:21.282Z,15.30
2023-10-06T18:24:52.605Z,15.20
2023-10-06T18:27:22.243Z,15.10
2023-10-06T18:29:50.494Z,14.90
2023-10-06T18:32:18.825Z,14.90
2023-10-06T18:34:47.020Z,14.70
2023-10-06T18:37:15.617Z,14.40
2023-10-06T18:39:47.742Z,14.20
2023-10-06T18:42:17.800Z,14.00
2023-10-06T18:44:46.793Z,14.20
2023-10-06T18:47:15.886Z,14.30
2023-10-06T18:49:44.845Z,14.00
2023-10-06T18:52:15.105Z,13.90
2023-10-06T18:54:43.561Z,13.70
2023-10-06T18:57:12.037Z,13.70
2023-10-06T18:59:42.414Z,13.50
2023-10-06T19:02:11.559Z,13.40
2023-10-06T19:04:41.819Z,13.20
2023-10-06T19:07:10.699Z,13.00
2023-10-06T19:09:39.535Z,12.90
2023-10-06T19:12:08.172Z,12.90
2023-10-06T19:14:39.845Z,12.80
2023-10-06T19:17:10.147Z,12.90
2023-10-06T19:19:38.677Z,13.00
2023-10-06T19:22:07.390Z,13.00
2023-10-06T19:24:37.942Z,12.90
2023-10-06T19:27:07.747Z,12.90
2023-10-06T19:29:36.099Z,12.70
2023-10-06T19:32:04.946Z,12.60
2023-10-06T19:34:35.035Z,12.60
2023-10-06T19:37:03.441Z,12.70
2023-10-06T19:39:32.384Z,12.70
2023-10-06T19:42:02.426Z,12.60
2023-10-06T19:44:35.885Z,12.40
2023-10-06T19:47:06.015Z,12.30
2023-10-06T19:49:38.667Z,12.30
2023-10-06T19:52:09.347Z,12.30
2023-10-06T19:54:38.306Z,12.30
2023-10-06T19:57:06.719Z,12.40
2023-10-06T19:59:35.159Z,12.70
2023-10-06T20:02:06.973Z,12.60
2023-10-06T20:04:37.998Z,12.30
2023-10-06T20:07:07.513Z,12.10
2023-10-06T20:09:35.941Z,11.80
2023-10-06T20:12:04.417Z,11.60
2023-10-06T20:14:33.160Z,11.50
2023-10-06T20:17:01.467Z,11.80
2023-10-06T20:19:29.812Z,11.90
2023-10-06T20:22:00.165Z,11.80
2023-10-06T20:24:28.495Z,11.80
2023-10-06T20:26:56.759Z,11.80
2023-10-06T20:29:25.586Z,11.80
2023-10-06T20:31:54.491Z,11.80
2023-10-06T20:34:22.948Z,11.80
2023-10-06T20:36:51.219Z,11.90
2023-10-06T20:39:23.482Z,11.90
2023-10-06T20:41:51.795Z,12.00
2023-10-06T20:44:21.326Z,12.00
2023-10-06T20:46:52.422Z,12.10
2023-10-06T20:49:20.788Z,12.10
2023-10-06T20:51:49.727Z,12.10
2023-10-06T20:54:18.830Z,12.00
2023-10-06T20:56:49.766Z,11.90
2023-10-06T20:59:18.096Z,11.70
2023-10-06T21:01:48.107Z,11.60
2023-10-06T21:04:16.393Z,11.60
2023-10-06T21:06:44.720Z,11.70
2023-10-06T21:09:16.769Z,11.70
2023-10-06T21:11:45.389Z,11.70
2023-10-06T21:14:17.372Z,11.70
2023-10-06T21:16:46.729Z,11.60
2023-10-06T21:19:15.133Z,11.60
2023-10-06T21:21:43.471Z,11.50
2023-10-06T21:24:12.202Z,11.50
2023-10-06T21:26:40.726Z,11.30
2023-10-06T21:29:09.448Z,11.20
2023-10-06T21:31:40.259Z,11.10
2023-10-06T21:34:09.772Z,11.10
2023-10-06T21:36:44.636Z,11.10
2023-10-06T21:39:13.988Z,11.10
2023-10-06T21:41:42.401Z,11.00
2023-10-06T21:44:11.114Z,10.90
2023-10-06T21:46:41.028Z,11.00
2023-10-06T21:49:10.563Z,11.10
2023-10-06T21:51:39.063Z,11.10
2023-10-06T21:54:10.605Z,11.10
2023-10-06T21:56:42.107Z,11.10
2023-10-06T21:59:13.754Z,11.00
2023-10-06T22:01:43.765Z,11.10
2023-10-06T22:04:14.782Z,11.00
2023-10-06T22:06:43.437Z,11.00
2023-10-06T22:09:22.258Z,11.00
2023-10-06T22:11:53.878Z,11.00
2023-10-06T22:14:22.446Z,11.00
2023-10-06T22:16:56.536Z,10.80
2023-10-06T22:19:27.821Z,10.80
2023-10-06T22:21:56.905Z,10.70
2023-10-06T22:24:25.525Z,10.80
2023-10-06T22:26:56.838Z,10.80
2023-10-06T22:29:26.836Z,10.70
2023-10-06T22:31:56.668Z,10.50
2023-10-06T22:34:25.659Z,10.40
2023-10-06T22:37:02.079Z,10.60
2023-10-06T22:39:38.742Z,10.60
2023-10-06T22:42:11.438Z,10.60
2023-10-06T22:44:41.080Z,10.40
2023-10-06T22:47:12.916Z,10.30
2023-10-06T22:49:44.660Z,10.10
2023-10-06T22:52:14.695Z,10.00
2023-10-06T22:54:46.461Z,10.20
2023-10-06T22:57:15.146Z,10.20
2023-10-06T22:59:43.718Z,10.10
2023-10-06T23:02:13.866Z,10.10
2023-10-06T23:04:45.495Z,10.10
2023-10-06T23:07:14.073Z,10.10
2023-10-06T23:09:42.795Z,10.00
2023-10-06T23:12:11.307Z,9.90
2023-10-06T23:14:39.893Z,10.00
2023-10-06T23:17:08.458Z,10.00
2023-10-06T23:19:42.665Z,9.80
2023-10-06T23:22:13.499Z,9.80
2023-10-06T23:24:49.869Z,9.80
2023-10-06T23:27:19.511Z,9.80
2023-10-06T23:29:48.467Z,9.70
2023-10-06T23:32:18.571Z,9.70
2023-10-06T23:34:49.316Z,9.80
2023-10-06T23:37:18.041Z,9.60
2023-10-06T23:39:50.414Z,9.50
2023-10-06T23:42:35.941Z,9.50
2023-10-06T23:45:06.506Z,9.50
2023-10-06T23:47:36.538Z,9.50
2023-10-06T23:50:12.080Z,9.40
2023-10-06T23:52:44.195Z,9.40
2023-10-06T23:55:17.548Z,9.40
2023-10-06T23:57:51.053Z,9.40
